sensor_id;sensor_type;location;lat;lon;timestamp;temperature;humidity
52189;DHT22;38162;45.926;13.608;2022-10-16T00:01:18;15.50;88.00
52189;DHT22;38162;45.926;13.608;2022-10-16T00:03:45;15.50;88.10
52189;DHT22;38162;45.926;13.608;2022-10-16T00:06:13;15.50;88.10
52189;DHT22;38162;45.926;13.608;2022-10-16T00:08:39;15.50;87.90
52189;DHT22;38162;45.926;13.608;2022-10-16T00:11:08;15.50;87.50
52189;DHT22;38162;45.926;13.608;2022-10-16T00:13:35;15.40;87.40
52189;DHT22;38162;45.926;13.608;2022-10-16T00:16:03;15.40;87.60
52189;DHT22;38162;45.926;13.608;2022-10-16T00:18:29;15.40;87.50
52189;DHT22;38162;45.926;13.608;2022-10-16T00:20:55;15.40;87.60
52189;DHT22;38162;45.926;13.608;2022-10-16T00:23:22;15.40;87.50
52189;DHT22;38162;45.926;13.608;2022-10-16T00:25:59;15.40;87.40
52189;DHT22;38162;45.926;13.608;2022-10-16T00:28:25;15.40;87.40
52189;DHT22;38162;45.926;13.608;2022-10-16T00:30:51;15.40;87.40
52189;DHT22;38162;45.926;13.608;2022-10-16T00:33:17;15.30;87.30
52189;DHT22;38162;45.926;13.608;2022-10-16T00:35:43;15.30;87.10
52189;DHT22;38162;45.926;13.608;2022-10-16T00:38:09;15.30;87.10
52189;DHT22;38162;45.926;13.608;2022-10-16T00:40:35;15.20;87.00
52189;DHT22;38162;45.926;13.608;2022-10-16T00:43:00;15.20;87.10
52189;DHT22;38162;45.926;13.608;2022-10-16T00:45:26;15.20;87.20
52189;DHT22;38162;45.926;13.608;2022-10-16T00:47:54;15.20;87.40
52189;DHT22;38162;45.926;13.608;2022-10-16T00:50:32;15.10;87.30
52189;DHT22;38162;45.926;13.608;2022-10-16T00:52:59;15.20;87.40
52189;DHT22;38162;45.926;13.608;2022-10-16T00:55:26;15.10;87.20
52189;DHT22;38162;45.926;13.608;2022-10-16T00:57:54;15.10;87.30
52189;DHT22;38162;45.926;13.608;2022-10-16T01:00:24;15.10;87.30
52189;DHT22;38162;45.926;13.608;2022-10-16T01:02:55;15.10;87.30
52189;DHT22;38162;45.926;13.608;2022-10-16T01:05:22;15.10;87.30
52189;DHT22;38162;45.926;13.608;2022-10-16T01:08:10;15.00;87.20
52189;DHT22;38162;45.926;13.608;2022-10-16T01:10:39;15.00;87.20
52189;DHT22;38162;45.926;13.608;2022-10-16T01:13:08;15.00;87.20
52189;DHT22;38162;45.926;13.608;2022-10-16T01:16:01;15.00;87.20
52189;DHT22;38162;45.926;13.608;2022-10-16T01:19:05;15.00;87.40
52189;DHT22;38162;45.926;13.608;2022-10-16T01:21:27;15.00;87.30
52189;DHT22;38162;45.926;13.608;2022-10-16T01:29:13;14.90;87.50
52189;DHT22;38162;45.926;13.608;2022-10-16T01:31:45;14.90;87.50
52189;DHT22;38162;45.926;13.608;2022-10-16T01:37:12;14.90;87.70
52189;DHT22;38162;45.926;13.608;2022-10-16T01:39:42;14.90;87.70
52189;DHT22;38162;45.926;13.608;2022-10-16T01:42:20;14.90;87.60
52189;DHT22;38162;45.926;13.608;2022-10-16T01:44:48;14.90;87.60
52189;DHT22;38162;45.926;13.608;2022-10-16T01:47:15;14.80;87.50
52189;DHT22;38162;45.926;13.608;2022-10-16T01:49:43;14.80;87.60
52189;DHT22;38162;45.926;13.608;2022-10-16T01:52:14;14.80;87.80
52189;DHT22;38162;45.926;13.608;2022-10-16T01:54:43;14.80;87.90
52189;DHT22;38162;45.926;13.608;2022-10-16T01:57:11;14.80;88.10
52189;DHT22;38162;45.926;13.608;2022-10-16T01:59:44;14.80;88.30
52189;DHT22;38162;45.926;13.608;2022-10-16T02:02:13;14.80;88.30
52189;DHT22;38162;45.926;13.608;2022-10-16T02:04:47;14.80;88.30
52189;DHT22;38162;45.926;13.608;2022-10-16T02:07:14;14.80;88.40
52189;DHT22;38162;45.926;13.608;2022-10-16T02:09:40;14.80;88.30
52189;DHT22;38162;45.926;13.608;2022-10-16T02:12:14;14.80;88.30
52189;DHT22;38162;45.926;13.608;2022-10-16T02:14:41;14.80;88.40
52189;DHT22;38162;45.926;13.608;2022-10-16T02:17:16;14.80;88.40
52189;DHT22;38162;45.926;13.608;2022-10-16T02:19:44;14.80;88.30
52189;DHT22;38162;45.926;13.608;2022-10-16T02:22:17;14.70;88.20
52189;DHT22;38162;45.926;13.608;2022-10-16T02:24:52;14.70;88.30
52189;DHT22;38162;45.926;13.608;2022-10-16T02:27:35;14.70;88.20
52189;DHT22;38162;45.926;13.608;2022-10-16T02:30:14;14.70;88.10
52189;DHT22;38162;45.926;13.608;2022-10-16T02:32:44;14.70;88.30
52189;DHT22;38162;45.926;13.608;2022-10-16T02:35:10;14.70;88.40
52189;DHT22;38162;45.926;13.608;2022-10-16T02:37:37;14.60;88.40
52189;DHT22;38162;45.926;13.608;2022-10-16T02:40:05;14.60;88.60
52189;DHT22;38162;45.926;13.608;2022-10-16T02:42:35;14.60;88.60
52189;DHT22;38162;45.926;13.608;2022-10-16T02:45:02;14.70;88.90
52189;DHT22;38162;45.926;13.608;2022-10-16T02:47:28;14.60;88.70
52189;DHT22;38162;45.926;13.608;2022-10-16T02:49:53;14.60;88.90
52189;DHT22;38162;45.926;13.608;2022-10-16T02:52:19;14.60;89.00
52189;DHT22;38162;45.926;13.608;2022-10-16T02:54:45;14.60;89.00
52189;DHT22;38162;45.926;13.608;2022-10-16T02:57:10;14.60;89.00
52189;DHT22;38162;45.926;13.608;2022-10-16T02:59:37;14.70;89.10
52189;DHT22;38162;45.926;13.608;2022-10-16T03:02:03;14.60;89.10
52189;DHT22;38162;45.926;13.608;2022-10-16T03:04:29;14.60;89.20
52189;DHT22;38162;45.926;13.608;2022-10-16T03:06:54;14.60;89.30
52189;DHT22;38162;45.926;13.608;2022-10-16T03:09:20;14.70;89.30
52189;DHT22;38162;45.926;13.608;2022-10-16T03:11:45;14.60;88.90
52189;DHT22;38162;45.926;13.608;2022-10-16T03:14:11;14.60;88.80
52189;DHT22;38162;45.926;13.608;2022-10-16T03:16:37;14.70;88.90
52189;DHT22;38162;45.926;13.608;2022-10-16T03:19:03;14.70;88.90
52189;DHT22;38162;45.926;13.608;2022-10-16T03:21:28;14.70;88.80
52189;DHT22;38162;45.926;13.608;2022-10-16T03:23:55;14.60;88.70
52189;DHT22;38162;45.926;13.608;2022-10-16T03:26:20;14.70;88.80
52189;DHT22;38162;45.926;13.608;2022-10-16T03:28:46;14.70;88.90
52189;DHT22;38162;45.926;13.608;2022-10-16T03:31:12;14.60;88.90
52189;DHT22;38162;45.926;13.608;2022-10-16T03:33:37;14.60;88.90
52189;DHT22;38162;45.926;13.608;2022-10-16T03:36:03;14.60;88.70
52189;DHT22;38162;45.926;13.608;2022-10-16T03:38:29;14.60;88.70
52189;DHT22;38162;45.926;13.608;2022-10-16T03:40:55;14.60;88.60
52189;DHT22;38162;45.926;13.608;2022-10-16T03:43:20;14.60;88.70
52189;DHT22;38162;45.926;13.608;2022-10-16T03:45:46;14.60;88.70
52189;DHT22;38162;45.926;13.608;2022-10-16T03:48:12;14.60;88.70
52189;DHT22;38162;45.926;13.608;2022-10-16T03:50:37;14.60;88.70
52189;DHT22;38162;45.926;13.608;2022-10-16T03:53:03;14.60;88.80
52189;DHT22;38162;45.926;13.608;2022-10-16T03:55:29;14.60;88.80
52189;DHT22;38162;45.926;13.608;2022-10-16T03:57:54;14.60;88.90
52189;DHT22;38162;45.926;13.608;2022-10-16T04:00:20;14.60;88.90
52189;DHT22;38162;45.926;13.608;2022-10-16T04:02:46;14.60;89.00
52189;DHT22;38162;45.926;13.608;2022-10-16T04:05:11;14.50;89.10
52189;DHT22;38162;45.926;13.608;2022-10-16T04:07:37;14.50;89.00
52189;DHT22;38162;45.926;13.608;2022-10-16T04:10:04;14.50;89.00
52189;DHT22;38162;45.926;13.608;2022-10-16T04:12:29;14.50;88.90
52189;DHT22;38162;45.926;13.608;2022-10-16T04:14:55;14.50;88.80
52189;DHT22;38162;45.926;13.608;2022-10-16T04:17:21;14.50;88.40
52189;DHT22;38162;45.926;13.608;2022-10-16T04:19:46;14.50;88.40
52189;DHT22;38162;45.926;13.608;2022-10-16T04:22:12;14.50;88.20
52189;DHT22;38162;45.926;13.608;2022-10-16T04:24:37;14.40;87.90
52189;DHT22;38162;45.926;13.608;2022-10-16T04:27:03;14.40;88.00
52189;DHT22;38162;45.926;13.608;2022-10-16T04:29:29;14.40;88.20
52189;DHT22;38162;45.926;13.608;2022-10-16T04:31:55;14.30;88.30
52189;DHT22;38162;45.926;13.608;2022-10-16T04:34:20;14.30;88.30
52189;DHT22;38162;45.926;13.608;2022-10-16T04:36:49;14.30;88.30
52189;DHT22;38162;45.926;13.608;2022-10-16T04:39:15;14.30;88.40
52189;DHT22;38162;45.926;13.608;2022-10-16T04:41:41;14.30;88.70
52189;DHT22;38162;45.926;13.608;2022-10-16T04:44:07;14.20;88.90
52189;DHT22;38162;45.926;13.608;2022-10-16T04:46:33;14.30;89.20
52189;DHT22;38162;45.926;13.608;2022-10-16T04:48:59;14.30;89.20
52189;DHT22;38162;45.926;13.608;2022-10-16T04:51:25;14.30;89.10
52189;DHT22;38162;45.926;13.608;2022-10-16T04:53:51;14.30;89.10
52189;DHT22;38162;45.926;13.608;2022-10-16T04:56:17;14.20;89.30
52189;DHT22;38162;45.926;13.608;2022-10-16T04:58:43;14.20;89.40
52189;DHT22;38162;45.926;13.608;2022-10-16T05:01:08;14.20;89.40
52189;DHT22;38162;45.926;13.608;2022-10-16T05:03:34;14.20;89.40
52189;DHT22;38162;45.926;13.608;2022-10-16T05:06:00;14.20;89.40
52189;DHT22;38162;45.926;13.608;2022-10-16T05:08:26;14.20;89.30
52189;DHT22;38162;45.926;13.608;2022-10-16T05:10:51;14.20;89.50
52189;DHT22;38162;45.926;13.608;2022-10-16T05:13:17;14.20;89.50
52189;DHT22;38162;45.926;13.608;2022-10-16T05:15:47;14.20;89.60
52189;DHT22;38162;45.926;13.608;2022-10-16T05:18:13;14.20;89.80
52189;DHT22;38162;45.926;13.608;2022-10-16T05:20:39;14.20;89.90
52189;DHT22;38162;45.926;13.608;2022-10-16T05:23:05;14.20;89.80
52189;DHT22;38162;45.926;13.608;2022-10-16T05:25:30;14.20;89.80
52189;DHT22;38162;45.926;13.608;2022-10-16T05:27:56;14.20;90.00
52189;DHT22;38162;45.926;13.608;2022-10-16T05:30:22;14.20;90.00
52189;DHT22;38162;45.926;13.608;2022-10-16T05:32:49;14.20;90.00
52189;DHT22;38162;45.926;13.608;2022-10-16T05:35:15;14.20;90.00
52189;DHT22;38162;45.926;13.608;2022-10-16T05:37:41;14.20;90.00
52189;DHT22;38162;45.926;13.608;2022-10-16T05:40:07;14.20;90.10
52189;DHT22;38162;45.926;13.608;2022-10-16T05:42:33;14.20;90.10
52189;DHT22;38162;45.926;13.608;2022-10-16T05:44:59;14.20;90.10
52189;DHT22;38162;45.926;13.608;2022-10-16T05:47:24;14.20;90.10
52189;DHT22;38162;45.926;13.608;2022-10-16T05:49:50;14.20;90.20
52189;DHT22;38162;45.926;13.608;2022-10-16T05:52:16;14.30;90.30
52189;DHT22;38162;45.926;13.608;2022-10-16T05:54:41;14.30;90.30
52189;DHT22;38162;45.926;13.608;2022-10-16T05:57:07;14.30;90.20
52189;DHT22;38162;45.926;13.608;2022-10-16T05:59:33;14.30;90.20
52189;DHT22;38162;45.926;13.608;2022-10-16T06:01:58;14.30;90.10
52189;DHT22;38162;45.926;13.608;2022-10-16T06:04:24;14.30;90.00
52189;DHT22;38162;45.926;13.608;2022-10-16T06:06:49;14.30;90.10
52189;DHT22;38162;45.926;13.608;2022-10-16T06:09:15;14.30;90.20
52189;DHT22;38162;45.926;13.608;2022-10-16T06:11:41;14.30;90.20
52189;DHT22;38162;45.926;13.608;2022-10-16T06:14:08;14.30;90.20
52189;DHT22;38162;45.926;13.608;2022-10-16T06:16:35;14.30;90.10
52189;DHT22;38162;45.926;13.608;2022-10-16T06:19:02;14.30;89.80
52189;DHT22;38162;45.926;13.608;2022-10-16T06:21:31;14.30;89.40
52189;DHT22;38162;45.926;13.608;2022-10-16T06:23:58;14.30;89.30
52189;DHT22;38162;45.926;13.608;2022-10-16T06:26:26;14.20;89.30
52189;DHT22;38162;45.926;13.608;2022-10-16T06:28:54;14.20;89.40
52189;DHT22;38162;45.926;13.608;2022-10-16T06:31:21;14.20;89.40
52189;DHT22;38162;45.926;13.608;2022-10-16T06:33:50;14.20;89.40
52189;DHT22;38162;45.926;13.608;2022-10-16T06:36:17;14.20;89.60
52189;DHT22;38162;45.926;13.608;2022-10-16T06:38:43;14.20;89.60
52189;DHT22;38162;45.926;13.608;2022-10-16T06:41:13;14.20;89.90
52189;DHT22;38162;45.926;13.608;2022-10-16T06:43:39;14.20;89.90
52189;DHT22;38162;45.926;13.608;2022-10-16T06:46:06;14.20;90.10
52189;DHT22;38162;45.926;13.608;2022-10-16T06:48:36;14.30;90.20
52189;DHT22;38162;45.926;13.608;2022-10-16T06:51:13;14.30;90.30
52189;DHT22;38162;45.926;13.608;2022-10-16T06:53:41;14.30;90.30
52189;DHT22;38162;45.926;13.608;2022-10-16T06:56:16;14.30;90.60
52189;DHT22;38162;45.926;13.608;2022-10-16T06:58:43;14.40;90.40
52189;DHT22;38162;45.926;13.608;2022-10-16T07:01:10;14.40;90.40
52189;DHT22;38162;45.926;13.608;2022-10-16T07:03:37;14.50;90.50
52189;DHT22;38162;45.926;13.608;2022-10-16T07:06:05;14.50;90.60
52189;DHT22;38162;45.926;13.608;2022-10-16T07:08:35;14.50;90.70
52189;DHT22;38162;45.926;13.608;2022-10-16T07:11:06;14.60;90.70
52189;DHT22;38162;45.926;13.608;2022-10-16T07:13:36;14.60;90.80
52189;DHT22;38162;45.926;13.608;2022-10-16T07:16:17;14.70;90.70
52189;DHT22;38162;45.926;13.608;2022-10-16T07:18:43;14.70;90.70
52189;DHT22;38162;45.926;13.608;2022-10-16T07:21:15;14.70;90.70
52189;DHT22;38162;45.926;13.608;2022-10-16T07:23:42;14.70;90.80
52189;DHT22;38162;45.926;13.608;2022-10-16T07:26:08;14.70;90.80
52189;DHT22;38162;45.926;13.608;2022-10-16T07:28:35;14.70;90.90
52189;DHT22;38162;45.926;13.608;2022-10-16T07:31:02;14.70;91.00
52189;DHT22;38162;45.926;13.608;2022-10-16T07:33:29;14.70;91.20
52189;DHT22;38162;45.926;13.608;2022-10-16T07:35:55;14.80;91.20
52189;DHT22;38162;45.926;13.608;2022-10-16T07:38:21;14.80;91.10
52189;DHT22;38162;45.926;13.608;2022-10-16T07:40:47;14.80;91.20
52189;DHT22;38162;45.926;13.608;2022-10-16T07:43:14;14.90;91.20
52189;DHT22;38162;45.926;13.608;2022-10-16T07:45:49;14.90;91.20
52189;DHT22;38162;45.926;13.608;2022-10-16T07:48:16;15.00;91.20
52189;DHT22;38162;45.926;13.608;2022-10-16T07:50:43;15.00;91.20
52189;DHT22;38162;45.926;13.608;2022-10-16T07:53:09;15.00;91.30
52189;DHT22;38162;45.926;13.608;2022-10-16T07:55:35;15.00;91.40
52189;DHT22;38162;45.926;13.608;2022-10-16T07:58:00;15.00;91.40
52189;DHT22;38162;45.926;13.608;2022-10-16T08:00:26;15.10;91.40
52189;DHT22;38162;45.926;13.608;2022-10-16T08:02:52;15.10;91.40
52189;DHT22;38162;45.926;13.608;2022-10-16T08:05:17;15.10;91.50
52189;DHT22;38162;45.926;13.608;2022-10-16T08:07:48;15.20;91.50
52189;DHT22;38162;45.926;13.608;2022-10-16T08:10:17;15.20;91.60
52189;DHT22;38162;45.926;13.608;2022-10-16T08:12:43;15.30;91.60
52189;DHT22;38162;45.926;13.608;2022-10-16T08:15:09;15.30;91.60
52189;DHT22;38162;45.926;13.608;2022-10-16T08:17:35;15.40;91.50
52189;DHT22;38162;45.926;13.608;2022-10-16T08:20:01;15.40;91.50
52189;DHT22;38162;45.926;13.608;2022-10-16T08:22:27;15.40;91.50
52189;DHT22;38162;45.926;13.608;2022-10-16T08:24:52;15.50;91.40
52189;DHT22;38162;45.926;13.608;2022-10-16T08:27:18;15.50;91.50
52189;DHT22;38162;45.926;13.608;2022-10-16T08:29:44;15.60;91.50
52189;DHT22;38162;45.926;13.608;2022-10-16T08:32:09;15.60;91.50
52189;DHT22;38162;45.926;13.608;2022-10-16T08:34:35;15.60;91.50
52189;DHT22;38162;45.926;13.608;2022-10-16T08:37:01;15.70;91.50
52189;DHT22;38162;45.926;13.608;2022-10-16T08:39:27;15.70;91.60
52189;DHT22;38162;45.926;13.608;2022-10-16T08:45:00;15.80;91.30
52189;DHT22;38162;45.926;13.608;2022-10-16T08:47:48;15.90;91.30
52189;DHT22;38162;45.926;13.608;2022-10-16T08:50:25;16.00;91.30
52189;DHT22;38162;45.926;13.608;2022-10-16T08:52:53;16.10;91.40
52189;DHT22;38162;45.926;13.608;2022-10-16T08:55:37;16.20;91.40
52189;DHT22;38162;45.926;13.608;2022-10-16T08:58:19;16.20;91.30
52189;DHT22;38162;45.926;13.608;2022-10-16T09:00:53;16.30;91.10
52189;DHT22;38162;45.926;13.608;2022-10-16T09:06:16;16.40;90.50
52189;DHT22;38162;45.926;13.608;2022-10-16T09:13:51;16.50;90.40
52189;DHT22;38162;45.926;13.608;2022-10-16T09:16:33;16.60;90.40
52189;DHT22;38162;45.926;13.608;2022-10-16T09:19:15;16.70;90.40
52189;DHT22;38162;45.926;13.608;2022-10-16T09:21:45;16.70;90.20
52189;DHT22;38162;45.926;13.608;2022-10-16T09:24:21;16.70;90.10
52189;DHT22;38162;45.926;13.608;2022-10-16T09:26:47;16.80;89.70
52189;DHT22;38162;45.926;13.608;2022-10-16T09:29:18;16.80;89.60
52189;DHT22;38162;45.926;13.608;2022-10-16T09:31:47;16.90;90.00
52189;DHT22;38162;45.926;13.608;2022-10-16T09:34:33;17.00;90.10
52189;DHT22;38162;45.926;13.608;2022-10-16T09:37:03;17.10;89.80
52189;DHT22;38162;45.926;13.608;2022-10-16T09:39:29;17.20;89.20
52189;DHT22;38162;45.926;13.608;2022-10-16T09:41:55;17.20;88.90
52189;DHT22;38162;45.926;13.608;2022-10-16T09:44:26;17.30;88.50
52189;DHT22;38162;45.926;13.608;2022-10-16T09:47:25;17.40;88.10
52189;DHT22;38162;45.926;13.608;2022-10-16T09:50:19;17.50;87.60
52189;DHT22;38162;45.926;13.608;2022-10-16T09:52:45;17.50;87.50
52189;DHT22;38162;45.926;13.608;2022-10-16T09:55:16;17.60;87.70
52189;DHT22;38162;45.926;13.608;2022-10-16T09:57:54;17.60;87.80
52189;DHT22;38162;45.926;13.608;2022-10-16T10:00:22;17.60;87.80
52189;DHT22;38162;45.926;13.608;2022-10-16T10:02:48;17.70;88.10
52189;DHT22;38162;45.926;13.608;2022-10-16T10:05:26;17.70;87.90
52189;DHT22;38162;45.926;13.608;2022-10-16T10:08:02;17.70;87.90
52189;DHT22;38162;45.926;13.608;2022-10-16T10:10:34;17.80;87.50
52189;DHT22;38162;45.926;13.608;2022-10-16T10:13:02;17.90;87.40
52189;DHT22;38162;45.926;13.608;2022-10-16T10:15:33;17.90;86.90
52189;DHT22;38162;45.926;13.608;2022-10-16T10:18:00;18.00;87.00
52189;DHT22;38162;45.926;13.608;2022-10-16T10:20:35;18.10;87.00
52189;DHT22;38162;45.926;13.608;2022-10-16T10:23:30;18.10;86.70
52189;DHT22;38162;45.926;13.608;2022-10-16T10:26:16;18.20;86.90
52189;DHT22;38162;45.926;13.608;2022-10-16T10:39:42;18.60;84.60
52189;DHT22;38162;45.926;13.608;2022-10-16T11:01:16;19.10;84.20
52189;DHT22;38162;45.926;13.608;2022-10-16T11:06:56;19.30;83.10
52189;DHT22;38162;45.926;13.608;2022-10-16T11:09:48;19.40;81.30
52189;DHT22;38162;45.926;13.608;2022-10-16T11:12:19;19.50;81.60
52189;DHT22;38162;45.926;13.608;2022-10-16T11:19:51;19.60;81.60
52189;DHT22;38162;45.926;13.608;2022-10-16T11:22:32;19.70;81.20
52189;DHT22;38162;45.926;13.608;2022-10-16T11:25:17;19.80;81.10
52189;DHT22;38162;45.926;13.608;2022-10-16T11:28:02;19.80;81.00
52189;DHT22;38162;45.926;13.608;2022-10-16T11:30:39;19.90;80.60
52189;DHT22;38162;45.926;13.608;2022-10-16T11:35:46;20.00;79.50
52189;DHT22;38162;45.926;13.608;2022-10-16T11:41:02;20.10;79.50
52189;DHT22;38162;45.926;13.608;2022-10-16T11:43:42;20.10;78.60
52189;DHT22;38162;45.926;13.608;2022-10-16T11:46:12;20.10;77.90
52189;DHT22;38162;45.926;13.608;2022-10-16T11:51:51;20.30;78.40
52189;DHT22;38162;45.926;13.608;2022-10-16T11:54:39;20.30;79.20
52189;DHT22;38162;45.926;13.608;2022-10-16T11:57:21;20.40;78.80
52189;DHT22;38162;45.926;13.608;2022-10-16T11:59:54;20.50;78.70
52189;DHT22;38162;45.926;13.608;2022-10-16T12:07:48;20.60;76.00
52189;DHT22;38162;45.926;13.608;2022-10-16T12:10:27;20.60;77.10
52189;DHT22;38162;45.926;13.608;2022-10-16T12:12:53;20.60;77.10
52189;DHT22;38162;45.926;13.608;2022-10-16T12:15:33;20.60;77.60
52189;DHT22;38162;45.926;13.608;2022-10-16T12:18:00;20.60;76.80
52189;DHT22;38162;45.926;13.608;2022-10-16T12:20:33;20.60;77.40
52189;DHT22;38162;45.926;13.608;2022-10-16T12:23:05;20.60;77.10
52189;DHT22;38162;45.926;13.608;2022-10-16T12:25:36;20.60;77.00
52189;DHT22;38162;45.926;13.608;2022-10-16T12:30:35;20.60;77.10
52189;DHT22;38162;45.926;13.608;2022-10-16T12:33:22;20.60;77.10
52189;DHT22;38162;45.926;13.608;2022-10-16T12:35:49;20.60;76.40
52189;DHT22;38162;45.926;13.608;2022-10-16T12:38:21;20.50;76.40
52189;DHT22;38162;45.926;13.608;2022-10-16T12:41:07;20.60;76.10
52189;DHT22;38162;45.926;13.608;2022-10-16T12:48:33;20.50;75.80
52189;DHT22;38162;45.926;13.608;2022-10-16T12:51:24;20.50;76.00
52189;DHT22;38162;45.926;13.608;2022-10-16T13:14:16;20.80;76.20
52189;DHT22;38162;45.926;13.608;2022-10-16T13:19:36;20.90;76.20
52189;DHT22;38162;45.926;13.608;2022-10-16T13:28:02;21.00;76.60
52189;DHT22;38162;45.926;13.608;2022-10-16T13:30:30;21.00;75.90
52189;DHT22;38162;45.926;13.608;2022-10-16T13:33:02;21.00;75.70
52189;DHT22;38162;45.926;13.608;2022-10-16T13:35:31;21.00;75.60
52189;DHT22;38162;45.926;13.608;2022-10-16T13:38:15;21.10;75.40
52189;DHT22;38162;45.926;13.608;2022-10-16T13:46:04;21.10;75.00
52189;DHT22;38162;45.926;13.608;2022-10-16T13:48:31;21.10;75.20
52189;DHT22;38162;45.926;13.608;2022-10-16T13:53:34;21.10;75.60
52189;DHT22;38162;45.926;13.608;2022-10-16T13:56:01;21.10;75.40
52189;DHT22;38162;45.926;13.608;2022-10-16T13:58:27;21.10;75.40
52189;DHT22;38162;45.926;13.608;2022-10-16T14:00:55;21.10;75.40
52189;DHT22;38162;45.926;13.608;2022-10-16T14:03:21;21.10;75.70
52189;DHT22;38162;45.926;13.608;2022-10-16T14:05:52;21.10;75.50
52189;DHT22;38162;45.926;13.608;2022-10-16T14:08:19;21.10;75.90
52189;DHT22;38162;45.926;13.608;2022-10-16T14:10:50;21.00;76.40
52189;DHT22;38162;45.926;13.608;2022-10-16T14:13:24;21.10;76.30
52189;DHT22;38162;45.926;13.608;2022-10-16T14:15:52;21.00;75.70
52189;DHT22;38162;45.926;13.608;2022-10-16T14:18:24;21.00;75.30
52189;DHT22;38162;45.926;13.608;2022-10-16T14:20:51;21.00;75.20
52189;DHT22;38162;45.926;13.608;2022-10-16T14:23:30;21.00;75.30
52189;DHT22;38162;45.926;13.608;2022-10-16T14:28:40;21.00;75.20
52189;DHT22;38162;45.926;13.608;2022-10-16T14:31:31;20.90;75.40
52189;DHT22;38162;45.926;13.608;2022-10-16T14:33:58;20.90;76.00
52189;DHT22;38162;45.926;13.608;2022-10-16T14:36:25;20.90;76.50
52189;DHT22;38162;45.926;13.608;2022-10-16T14:39:03;20.80;77.50
52189;DHT22;38162;45.926;13.608;2022-10-16T14:41:41;20.80;77.30
52189;DHT22;38162;45.926;13.608;2022-10-16T14:44:12;20.80;77.60
52189;DHT22;38162;45.926;13.608;2022-10-16T14:46:41;20.80;78.10
52189;DHT22;38162;45.926;13.608;2022-10-16T14:51:37;20.70;78.80
52189;DHT22;38162;45.926;13.608;2022-10-16T14:54:04;20.70;79.20
52189;DHT22;38162;45.926;13.608;2022-10-16T14:56:34;20.60;78.80
52189;DHT22;38162;45.926;13.608;2022-10-16T14:59:02;20.60;79.00
52189;DHT22;38162;45.926;13.608;2022-10-16T15:01:27;20.60;79.10
52189;DHT22;38162;45.926;13.608;2022-10-16T15:03:53;20.60;79.30
52189;DHT22;38162;45.926;13.608;2022-10-16T15:06:20;20.50;79.50
52189;DHT22;38162;45.926;13.608;2022-10-16T15:08:47;20.50;79.70
52189;DHT22;38162;45.926;13.608;2022-10-16T15:11:17;20.50;80.00
52189;DHT22;38162;45.926;13.608;2022-10-16T15:13:44;20.40;80.40
52189;DHT22;38162;45.926;13.608;2022-10-16T15:16:14;20.40;80.70
52189;DHT22;38162;45.926;13.608;2022-10-16T15:18:40;20.30;81.10
52189;DHT22;38162;45.926;13.608;2022-10-16T15:21:06;20.30;81.30
52189;DHT22;38162;45.926;13.608;2022-10-16T15:23:32;20.30;81.50
52189;DHT22;38162;45.926;13.608;2022-10-16T15:25:58;20.20;81.70
52189;DHT22;38162;45.926;13.608;2022-10-16T15:28:24;20.20;81.80
52189;DHT22;38162;45.926;13.608;2022-10-16T15:30:53;20.10;81.90
52189;DHT22;38162;45.926;13.608;2022-10-16T15:33:21;20.10;82.00
52189;DHT22;38162;45.926;13.608;2022-10-16T15:35:49;20.10;82.00
52189;DHT22;38162;45.926;13.608;2022-10-16T15:38:16;20.10;82.10
52189;DHT22;38162;45.926;13.608;2022-10-16T15:40:42;20.10;82.10
52189;DHT22;38162;45.926;13.608;2022-10-16T15:43:09;20.10;82.20
52189;DHT22;38162;45.926;13.608;2022-10-16T15:45:34;20.00;82.30
52189;DHT22;38162;45.926;13.608;2022-10-16T15:48:00;20.00;82.30
52189;DHT22;38162;45.926;13.608;2022-10-16T15:50:26;20.00;82.40
52189;DHT22;38162;45.926;13.608;2022-10-16T15:52:52;20.00;82.40
52189;DHT22;38162;45.926;13.608;2022-10-16T15:55:18;19.90;82.50
52189;DHT22;38162;45.926;13.608;2022-10-16T15:57:44;19.90;82.60
52189;DHT22;38162;45.926;13.608;2022-10-16T16:00:13;19.90;82.70
52189;DHT22;38162;45.926;13.608;2022-10-16T16:02:40;19.80;82.70
52189;DHT22;38162;45.926;13.608;2022-10-16T16:05:06;19.80;82.90
52189;DHT22;38162;45.926;13.608;2022-10-16T16:07:37;19.80;83.00
52189;DHT22;38162;45.926;13.608;2022-10-16T16:10:05;19.80;83.30
52189;DHT22;38162;45.926;13.608;2022-10-16T16:12:32;19.70;83.40
52189;DHT22;38162;45.926;13.608;2022-10-16T16:14:58;19.70;83.50
52189;DHT22;38162;45.926;13.608;2022-10-16T16:17:24;19.70;83.60
52189;DHT22;38162;45.926;13.608;2022-10-16T16:19:50;19.60;83.70
52189;DHT22;38162;45.926;13.608;2022-10-16T16:22:16;19.60;83.90
52189;DHT22;38162;45.926;13.608;2022-10-16T16:24:42;19.60;84.10
52189;DHT22;38162;45.926;13.608;2022-10-16T16:27:08;19.60;84.30
52189;DHT22;38162;45.926;13.608;2022-10-16T16:29:34;19.50;84.50
52189;DHT22;38162;45.926;13.608;2022-10-16T16:32:00;19.50;84.70
52189;DHT22;38162;45.926;13.608;2022-10-16T16:34:27;19.40;84.80
52189;DHT22;38162;45.926;13.608;2022-10-16T16:36:54;19.40;84.90
52189;DHT22;38162;45.926;13.608;2022-10-16T16:39:20;19.40;85.20
52189;DHT22;38162;45.926;13.608;2022-10-16T16:41:46;19.40;85.40
52189;DHT22;38162;45.926;13.608;2022-10-16T16:44:12;19.30;86.00
52189;DHT22;38162;45.926;13.608;2022-10-16T16:46:38;19.30;85.60
52189;DHT22;38162;45.926;13.608;2022-10-16T16:49:05;19.20;85.70
52189;DHT22;38162;45.926;13.608;2022-10-16T16:51:33;19.20;85.70
52189;DHT22;38162;45.926;13.608;2022-10-16T16:53:59;19.20;85.80
52189;DHT22;38162;45.926;13.608;2022-10-16T16:56:25;19.20;85.90
52189;DHT22;38162;45.926;13.608;2022-10-16T16:58:53;19.10;86.00
52189;DHT22;38162;45.926;13.608;2022-10-16T17:01:20;19.10;86.00
52189;DHT22;38162;45.926;13.608;2022-10-16T17:03:49;19.10;85.90
52189;DHT22;38162;45.926;13.608;2022-10-16T17:06:15;19.00;85.80
52189;DHT22;38162;45.926;13.608;2022-10-16T17:08:42;19.00;86.00
52189;DHT22;38162;45.926;13.608;2022-10-16T17:11:19;19.00;86.10
52189;DHT22;38162;45.926;13.608;2022-10-16T17:13:45;19.00;86.40
52189;DHT22;38162;45.926;13.608;2022-10-16T17:16:11;18.90;86.40
52189;DHT22;38162;45.926;13.608;2022-10-16T17:18:37;18.90;86.30
52189;DHT22;38162;45.926;13.608;2022-10-16T17:21:06;18.90;86.40
52189;DHT22;38162;45.926;13.608;2022-10-16T17:23:33;18.90;86.80
52189;DHT22;38162;45.926;13.608;2022-10-16T17:26:17;18.90;86.80
52189;DHT22;38162;45.926;13.608;2022-10-16T17:28:43;18.80;86.90